Nearby METAR Reports

 

EGKB - Biggin Hill, United Kingdom
Distance from station: S 5mi, 8km
Updated: 03/08/2015 20:20
NOT Current
Few Clouds
Few Clouds
 Wind from varies
Wind: varies 10 mph , 17 km/h
Temperature: 16°C
Dew Point: 13°C
Humidity: 83%
Barometer: 1012 hPa
Clouds: Few Clouds
Visibility: 6 miles , 10 km
Cloud details: Few Clouds 305 m
2015/08/03 19:20 EGKB 031920Z VRB09KT 9999 FEW010 16/13 Q1012
EGLC - London City Airp, United Kingdom
Distance from station: NNE 8mi, 13km
Updated: 03/08/2015 21:50
Clear
Clear
 Wind from SSW
Wind: SSW 8 mph , 13 km/h
Temperature: 18°C
Dew Point: 14°C
Humidity: 78%
Barometer: 1011 hPa
Summary: Clear
Visibility: greater than 7 miles , 10 km
2015/08/03 20:50 EGLC 032050Z 20007KT CAVOK 18/14 Q1011
 
EGKK - London/Gatwick A, United Kingdom
Distance from station: SSW 19mi, 31km
Updated: 03/08/2015 21:50
Partly cloudy
Partly cloudy
 Wind from S
Wind: S 6 mph , 9 km/h
Temperature: 16°C
Dew Point: 15°C
Humidity: 94%
Barometer: 1012 hPa
Clouds: Partly cloudy
Visibility: 6 miles , 10 km
Cloud details: Partly cloudy 274 m
2015/08/03 20:50 EGKK 032050Z 19005KT 140V220 9999 SCT009 16/15 Q1012
EGLL - London/Heathrow, United Kingdom
Distance from station: WNW 21mi, 33km
Updated: 03/08/2015 21:50
Clear
Clear
 Wind from SSW
Wind: SSW 12 mph , 19 km/h
Temperature: 18°C
Dew Point: 14°C
Humidity: 78%
Barometer: 1011 hPa
Summary: Clear
Visibility: greater than 7 miles , 10 km
2015/08/03 20:50 EGLL 032050Z 20010KT 170V260 CAVOK 18/14 Q1011 NOSIG